Time;durP1;ratioP1;P1;durP2;ratioP2;P2;SDS_P1;SDS_P2;PMS_P1;PMS_P2;Temp;Humidity;BMP_temperature;BMP_pressure;BME280_temperature;BME280_humidity;BME280_pressure;Samples;Min_cycle;Max_cycle;Signal;HPM_P1;HPM_P2
2021/08/03 00:01:44;;;;;;;0.82;0.82;;;;;;;;;;5074144;28;20214;-45
2021/08/03 00:04:14;;;;;;;1.02;1.02;;;;;;;;;;5073600;28;20545;-45
2021/08/03 00:06:54;;;;;;;0.75;0.75;;;;;;;;;;5084734;28;20174;-45
2021/08/03 00:09:20;;;;;;;1.60;0.90;;;;;;;;;;5100407;28;20181;-46
2021/08/03 00:11:46;;;;;;;1.58;1.05;;;;;;;;;;5094111;28;20180;-46
2021/08/03 00:14:13;;;;;;;0.80;0.80;;;;;;;;;;5085199;28;20186;-45
2021/08/03 00:16:40;;;;;;;0.95;0.80;;;;;;;;;;5094572;28;20178;-45
2021/08/03 00:19:06;;;;;;;0.90;0.90;;;;;;;;;;5094033;28;20174;-46
2021/08/03 00:21:33;;;;;;;1.67;1.10;;;;;;;;;;5096184;28;20181;-46
2021/08/03 00:23:59;;;;;;;1.15;0.82;;;;;;;;;;5099094;28;20205;-46
2021/08/03 00:26:25;;;;;;;1.40;1.15;;;;;;;;;;5082741;28;20186;-45
2021/08/03 00:28:51;;;;;;;1.15;1.05;;;;;;;;;;5078408;28;20178;-45
2021/08/03 00:31:20;;;;;;;1.15;0.93;;;;;;;;;;5080566;28;20308;-45
2021/08/03 00:33:47;;;;;;;1.30;1.00;;;;;;;;;;5085646;28;20168;-46
2021/08/03 00:36:14;;;;;;;1.35;0.73;;;;;;;;;;5111847;28;20177;-46
2021/08/03 00:38:40;;;;;;;2.47;0.80;;;;;;;;;;5108551;28;20173;-45
2021/08/03 00:41:09;;;;;;;4.85;1.02;;;;;;;;;;5102988;28;20206;-46
2021/08/03 00:43:35;;;;;;;0.88;0.88;;;;;;;;;;5087574;28;20228;-46
2021/08/03 00:46:01;;;;;;;1.50;0.93;;;;;;;;;;5101200;28;20189;-46
2021/08/03 00:48:27;;;;;;;0.70;0.70;;;;;;;;;;5100707;28;20467;-46
2021/08/03 00:50:53;;;;;;;0.90;0.90;;;;;;;;;;5112298;28;20672;-46
2021/08/03 00:53:19;;;;;;;1.23;0.80;;;;;;;;;;5113927;28;20201;-46
2021/08/03 00:55:45;;;;;;;0.93;0.93;;;;;;;;;;5101096;28;20198;-46
2021/08/03 00:58:12;;;;;;;2.08;0.90;;;;;;;;;;5097092;28;20173;-46
2021/08/03 01:00:38;;;;;;;0.82;0.80;;;;;;;;;;5080402;28;20166;-46
2021/08/03 01:03:04;;;;;;;2.83;0.82;;;;;;;;;;5082468;28;20186;-46
2021/08/03 01:05:41;;;;;;;1.85;0.88;;;;;;;;;;5082949;28;20435;-45
2021/08/03 01:08:07;;;;;;;2.05;0.80;;;;;;;;;;5082452;28;20166;-45
2021/08/03 01:10:36;;;;;;;1.65;0.80;;;;;;;;;;5082010;28;20202;-45
2021/08/03 01:13:22;;;;;;;0.68;0.68;;;;;;;;;;5083049;28;20437;-45
2021/08/03 01:15:52;;;;;;;0.90;0.85;;;;;;;;;;5069173;28;20534;-45
2021/08/03 01:18:22;;;;;;;0.93;0.93;;;;;;;;;;5082772;28;20174;-46
2021/08/03 01:21:06;;;;;;;0.80;0.80;;;;;;;;;;5083004;28;20166;-46
2021/08/03 01:23:51;;;;;;;1.10;1.10;;;;;;;;;;5082861;28;20159;-46
2021/08/03 01:26:23;;;;;;;0.88;0.80;;;;;;;;;;5082867;28;20167;-45
2021/08/03 01:28:51;;;;;;;1.25;0.90;;;;;;;;;;5082685;28;20171;-45
2021/08/03 01:31:20;;;;;;;2.13;0.95;;;;;;;;;;5082847;28;20270;-45
2021/08/03 01:33:47;;;;;;;0.98;0.80;;;;;;;;;;5082738;28;20208;-45
2021/08/03 01:36:15;;;;;;;0.90;0.90;;;;;;;;;;5082818;28;20228;-45
2021/08/03 01:38:43;;;;;;;1.45;0.90;;;;;;;;;;5082381;28;20166;-45
2021/08/03 01:41:13;;;;;;;1.38;1.00;;;;;;;;;;5082820;28;20241;-45
2021/08/03 01:43:40;;;;;;;1.55;1.13;;;;;;;;;;5080824;28;20456;-45
2021/08/03 01:46:07;;;;;;;1.55;0.90;;;;;;;;;;5079535;28;20171;-45
2021/08/03 01:48:34;;;;;;;1.15;0.80;;;;;;;;;;5079279;28;20178;-45
2021/08/03 01:51:00;;;;;;;0.90;0.90;;;;;;;;;;5079445;28;20187;-46
2021/08/03 01:53:27;;;;;;;1.88;0.80;;;;;;;;;;5079305;28;20526;-46
2021/08/03 01:55:54;;;;;;;1.60;0.82;;;;;;;;;;5079502;28;20170;-46
2021/08/03 01:58:21;;;;;;;0.77;0.75;;;;;;;;;;5079146;28;20224;-45
2021/08/03 02:00:47;;;;;;;2.08;0.90;;;;;;;;;;5087871;28;20177;-45
2021/08/03 02:03:14;;;;;;;1.25;0.90;;;;;;;;;;5078726;28;20308;-45
2021/08/03 02:05:40;;;;;;;0.82;0.80;;;;;;;;;;5096064;28;20447;-45
2021/08/03 02:08:07;;;;;;;0.95;0.90;;;;;;;;;;5101007;28;20192;-45
2021/08/03 02:10:34;;;;;;;0.95;0.95;;;;;;;;;;5096737;28;20217;-45
2021/08/03 02:13:01;;;;;;;0.82;0.82;;;;;;;;;;5096208;28;20176;-45
2021/08/03 02:15:27;;;;;;;1.95;0.93;;;;;;;;;;5078767;28;20240;-45
2021/08/03 02:17:53;;;;;;;1.02;0.90;;;;;;;;;;5099784;28;20559;-46
2021/08/03 02:20:19;;;;;;;0.70;0.70;;;;;;;;;;5094546;28;20176;-46
2021/08/03 02:22:45;;;;;;;0.93;0.93;;;;;;;;;;5086832;28;20441;-46
2021/08/03 02:25:12;;;;;;;1.05;0.80;;;;;;;;;;5107858;28;20504;-46
2021/08/03 02:27:39;;;;;;;0.80;0.80;;;;;;;;;;5096250;28;20257;-46
2021/08/03 02:30:06;;;;;;;0.75;0.75;;;;;;;;;;5093534;28;20229;-46
2021/08/03 02:32:36;;;;;;;1.38;1.08;;;;;;;;;;5077265;28;20617;-46
2021/08/03 02:35:05;;;;;;;1.30;0.85;;;;;;;;;;5082159;28;20305;-46
2021/08/03 02:37:33;;;;;;;1.13;0.90;;;;;;;;;;5097541;28;20177;-46
2021/08/03 02:40:00;;;;;;;1.90;1.00;;;;;;;;;;5087035;28;20216;-46
2021/08/03 02:42:26;;;;;;;0.90;0.90;;;;;;;;;;5096504;28;20177;-46
2021/08/03 02:44:54;;;;;;;0.80;0.80;;;;;;;;;;5084604;28;20182;-46
2021/08/03 02:47:28;;;;;;;1.42;0.85;;;;;;;;;;5087002;28;20200;-46
2021/08/03 02:50:05;;;;;;;0.90;0.90;;;;;;;;;;5115106;28;20314;-46
2021/08/03 02:52:31;;;;;;;0.98;0.88;;;;;;;;;;5114875;28;20180;-46
2021/08/03 02:54:58;;;;;;;4.47;0.85;;;;;;;;;;5084976;28;20220;-46
2021/08/03 02:57:26;;;;;;;0.75;0.75;;;;;;;;;;5095401;28;20177;-46
2021/08/03 02:59:54;;;;;;;0.77;0.70;;;;;;;;;;5089250;28;20178;-46
2021/08/03 03:02:21;;;;;;;1.88;0.95;;;;;;;;;;5084278;28;20229;-46
2021/08/03 03:04:59;;;;;;;1.00;0.77;;;;;;;;;;5095679;28;20189;-46
2021/08/03 03:07:32;;;;;;;0.80;0.80;;;;;;;;;;5096554;28;20306;-46
2021/08/03 03:09:58;;;;;;;2.92;1.05;;;;;;;;;;5104202;28;20337;-46
2021/08/03 03:12:26;;;;;;;1.70;0.93;;;;;;;;;;5095509;28;20181;-46
2021/08/03 03:14:53;;;;;;;1.30;1.13;;;;;;;;;;5083835;28;20189;-46
2021/08/03 03:17:21;;;;;;;1.30;1.20;;;;;;;;;;5079963;28;20179;-46
2021/08/03 03:19:48;;;;;;;0.80;0.80;;;;;;;;;;5110672;28;20224;-46
2021/08/03 03:22:14;;;;;;;1.58;1.10;;;;;;;;;;5104697;28;20181;-46
2021/08/03 03:24:42;;;;;;;1.27;0.90;;;;;;;;;;5095659;28;20196;-46
2021/08/03 03:27:10;;;;;;;1.20;0.95;;;;;;;;;;5074574;28;20258;-46
2021/08/03 03:29:37;;;;;;;2.47;1.00;;;;;;;;;;5085835;28;20281;-46
2021/08/03 03:32:03;;;;;;;0.80;0.80;;;;;;;;;;5080618;28;20186;-46
2021/08/03 03:34:30;;;;;;;1.92;0.98;;;;;;;;;;5075122;28;20196;-46
2021/08/03 03:36:57;;;;;;;0.80;0.80;;;;;;;;;;5102847;28;20324;-46
2021/08/03 03:39:23;;;;;;;0.85;0.85;;;;;;;;;;5101111;28;20182;-46
2021/08/03 03:41:52;;;;;;;0.80;0.70;;;;;;;;;;5095073;28;20608;-46
2021/08/03 03:44:18;;;;;;;1.98;1.00;;;;;;;;;;5086684;28;20213;-46
2021/08/03 03:46:53;;;;;;;0.70;0.70;;;;;;;;;;5077893;28;20170;-46
2021/08/03 03:49:23;;;;;;;2.28;1.17;;;;;;;;;;5104247;28;20172;-45
2021/08/03 03:51:49;;;;;;;0.85;0.85;;;;;;;;;;5096509;28;20216;-45
2021/08/03 03:54:18;;;;;;;0.90;0.90;;;;;;;;;;5108983;28;20180;-45
2021/08/03 03:56:50;;;;;;;0.82;0.80;;;;;;;;;;5088772;28;20196;-46
2021/08/03 03:59:20;;;;;;;2.45;1.17;;;;;;;;;;5087043;28;20448;-46
2021/08/03 04:01:48;;;;;;;0.85;0.85;;;;;;;;;;5095265;28;20186;-46
2021/08/03 04:04:14;;;;;;;1.80;0.90;;;;;;;;;;5097022;28;20164;-46
2021/08/03 04:06:40;;;;;;;0.88;0.88;;;;;;;;;;5096821;28;20223;-46
2021/08/03 04:09:16;;;;;;;0.80;0.80;;;;;;;;;;5096896;28;20260;-46
2021/08/03 04:11:46;;;;;;;1.63;0.93;;;;;;;;;;5097258;28;20480;-46
2021/08/03 04:14:16;;;;;;;1.45;1.00;;;;;;;;;;5097187;28;20202;-46
2021/08/03 04:19:45;;;;;;;1.13;0.90;;;;;;;;;;5097189;28;20244;-46
2021/08/03 04:22:11;;;;;;;2.03;1.00;;;;;;;;;;5097140;28;20197;-45
2021/08/03 04:24:37;;;;;;;1.15;1.00;;;;;;;;;;5096881;28;20173;-45
2021/08/03 04:27:03;;;;;;;3.25;1.10;;;;;;;;;;5096818;28;20543;-45
2021/08/03 04:29:29;;;;;;;1.63;0.88;;;;;;;;;;5096903;28;20532;-46
2021/08/03 04:31:55;;;;;;;2.13;1.05;;;;;;;;;;5097011;28;20528;-45
2021/08/03 04:37:25;;;;;;;1.58;1.10;;;;;;;;;;5096944;28;20194;-45
2021/08/03 04:42:55;;;;;;;1.95;1.25;;;;;;;;;;5097210;28;20152;-45
2021/08/03 04:45:21;;;;;;;1.52;0.90;;;;;;;;;;5096870;28;20162;-45
2021/08/03 04:47:48;;;;;;;2.70;0.90;;;;;;;;;;5096574;28;20170;-45
2021/08/03 04:53:17;;;;;;;1.13;0.80;;;;;;;;;;5096856;28;20153;-45
2021/08/03 04:55:43;;;;;;;1.50;0.98;;;;;;;;;;5096675;28;20166;-46
2021/08/03 04:58:09;;;;;;;3.70;1.10;;;;;;;;;;5096417;28;20198;-46
2021/08/03 05:00:35;;;;;;;4.38;1.20;;;;;;;;;;5094293;28;20173;-46
2021/08/03 05:03:01;;;;;;;5.30;0.93;;;;;;;;;;5097945;28;20185;-46
2021/08/03 05:05:27;;;;;;;2.08;1.15;;;;;;;;;;5113737;28;20474;-46
2021/08/03 05:08:02;;;;;;;2.78;1.08;;;;;;;;;;5111787;28;20176;-46
2021/08/03 05:10:29;;;;;;;1.95;0.95;;;;;;;;;;5083402;28;20292;-46
2021/08/03 05:12:55;;;;;;;1.85;1.15;;;;;;;;;;5093169;28;20729;-46
2021/08/03 05:15:22;;;;;;;1.50;0.98;;;;;;;;;;5088346;28;20201;-46
2021/08/03 05:17:48;;;;;;;1.30;0.90;;;;;;;;;;5093734;28;20275;-45
2021/08/03 05:20:14;;;;;;;1.15;1.05;;;;;;;;;;5090845;28;20568;-45
2021/08/03 05:22:40;;;;;;;1.90;1.30;;;;;;;;;;5099273;28;20177;-46
2021/08/03 05:25:07;;;;;;;1.58;1.02;;;;;;;;;;5096479;28;20189;-46
2021/08/03 05:27:33;;;;;;;1.90;1.15;;;;;;;;;;5097472;28;20515;-46
2021/08/03 05:29:59;;;;;;;1.30;1.10;;;;;;;;;;5096810;28;20186;-45
2021/08/03 05:32:25;;;;;;;1.48;1.10;;;;;;;;;;5097952;28;20215;-45
2021/08/03 05:34:51;;;;;;;0.88;0.88;;;;;;;;;;5106810;28;20209;-45
2021/08/03 05:37:17;;;;;;;2.03;1.25;;;;;;;;;;5097244;28;20811;-45
2021/08/03 05:39:43;;;;;;;1.10;1.00;;;;;;;;;;5094204;28;20197;-45
2021/08/03 05:42:09;;;;;;;1.30;1.20;;;;;;;;;;5097440;28;20182;-45
2021/08/03 05:44:35;;;;;;;1.17;1.08;;;;;;;;;;5086610;28;20189;-46
2021/08/03 05:47:01;;;;;;;1.50;1.00;;;;;;;;;;5078267;28;20756;-46
2021/08/03 05:49:28;;;;;;;1.35;1.10;;;;;;;;;;5092712;28;20182;-46
2021/08/03 05:51:55;;;;;;;3.53;1.13;;;;;;;;;;5087253;28;20182;-46
2021/08/03 05:54:21;;;;;;;1.10;1.00;;;;;;;;;;5107572;28;20165;-46
2021/08/03 05:56:47;;;;;;;1.70;1.10;;;;;;;;;;5091628;28;20205;-46
2021/08/03 05:59:13;;;;;;;1.30;1.20;;;;;;;;;;5078887;28;20790;-45
2021/08/03 06:01:39;;;;;;;1.27;1.17;;;;;;;;;;5080230;28;20213;-45
2021/08/03 06:04:05;;;;;;;1.35;1.17;;;;;;;;;;5110800;28;20211;-45
2021/08/03 06:06:37;;;;;;;1.55;1.45;;;;;;;;;;5111777;28;20485;-45
2021/08/03 06:09:03;;;;;;;3.65;1.70;;;;;;;;;;5093968;28;20213;-45
2021/08/03 06:11:29;;;;;;;4.43;1.55;;;;;;;;;;5078058;28;20233;-45
2021/08/03 06:13:57;;;;;;;1.70;1.58;;;;;;;;;;5081744;28;20184;-45
2021/08/03 06:16:24;;;;;;;2.17;1.60;;;;;;;;;;5078323;28;20174;-45
2021/08/03 06:18:51;;;;;;;2.63;1.40;;;;;;;;;;5087525;28;20197;-46
2021/08/03 06:21:18;;;;;;;4.05;1.70;;;;;;;;;;5096916;28;20178;-45
2021/08/03 06:23:44;;;;;;;3.08;1.95;;;;;;;;;;5104768;28;20195;-45
2021/08/03 06:26:11;;;;;;;2.28;1.60;;;;;;;;;;5094681;28;20170;-45
2021/08/03 06:28:37;;;;;;;4.22;1.95;;;;;;;;;;5078606;28;20186;-46
2021/08/03 06:31:03;;;;;;;3.13;2.20;;;;;;;;;;5091693;28;20220;-46
2021/08/03 06:33:30;;;;;;;3.28;2.65;;;;;;;;;;5095529;28;20177;-46
2021/08/03 06:35:56;;;;;;;2.35;2.15;;;;;;;;;;5091661;28;20261;-46
2021/08/03 06:38:22;;;;;;;2.90;2.30;;;;;;;;;;5088370;28;20177;-46
2021/08/03 06:40:51;;;;;;;2.72;2.35;;;;;;;;;;5096037;28;20553;-46
2021/08/03 06:43:18;;;;;;;2.50;2.30;;;;;;;;;;5094823;28;20265;-46
2021/08/03 06:45:48;;;;;;;4.00;2.63;;;;;;;;;;5093753;28;20488;-46
2021/08/03 06:48:17;;;;;;;3.33;3.00;;;;;;;;;;5083957;28;20265;-45
2021/08/03 06:50:54;;;;;;;3.38;3.08;;;;;;;;;;5084214;28;20576;-45
2021/08/03 06:53:21;;;;;;;3.80;3.30;;;;;;;;;;5100692;28;20165;-45
2021/08/03 06:55:47;;;;;;;4.93;3.42;;;;;;;;;;5100816;28;20177;-45
2021/08/03 06:58:31;;;;;;;3.97;3.50;;;;;;;;;;5075285;28;20202;-45
2021/08/03 07:00:58;;;;;;;3.92;3.20;;;;;;;;;;5075661;28;20223;-45
2021/08/03 07:03:25;;;;;;;3.53;3.22;;;;;;;;;;5087286;28;20272;-46
2021/08/03 07:05:57;;;;;;;5.53;3.50;;;;;;;;;;5092555;28;20177;-46
2021/08/03 07:08:24;;;;;;;4.13;3.10;;;;;;;;;;5100465;28;20184;-46
2021/08/03 07:10:53;;;;;;;3.72;3.25;;;;;;;;;;5100992;28;20307;-45
2021/08/03 07:13:20;;;;;;;6.40;4.22;;;;;;;;;;5095477;28;20576;-45
2021/08/03 07:15:46;;;;;;;3.50;3.20;;;;;;;;;;5077256;28;20181;-45
2021/08/03 07:18:12;;;;;;;5.80;3.22;;;;;;;;;;5084594;28;20611;-45
2021/08/03 07:20:42;;;;;;;3.10;2.80;;;;;;;;;;5093087;28;20243;-45
2021/08/03 07:23:12;;;;;;;3.65;3.17;;;;;;;;;;5096627;28;20181;-46
2021/08/03 07:25:38;;;;;;;3.85;2.72;;;;;;;;;;5086604;28;20193;-46
2021/08/03 07:28:04;;;;;;;2.78;2.58;;;;;;;;;;5089751;28;20189;-46
2021/08/03 07:30:30;;;;;;;2.95;2.75;;;;;;;;;;5087734;28;20585;-46
2021/08/03 07:32:56;;;;;;;3.13;2.83;;;;;;;;;;5085792;28;20197;-46
2021/08/03 07:35:22;;;;;;;5.60;3.45;;;;;;;;;;5088844;28;20170;-46
2021/08/03 07:37:48;;;;;;;3.35;3.05;;;;;;;;;;5086775;28;20568;-45
2021/08/03 07:40:14;;;;;;;2.85;2.60;;;;;;;;;;5106467;28;20189;-45
2021/08/03 07:42:40;;;;;;;2.50;2.30;;;;;;;;;;5093173;28;20177;-45
2021/08/03 07:45:06;;;;;;;3.30;3.00;;;;;;;;;;5079486;28;20265;-45
2021/08/03 07:47:33;;;;;;;4.18;3.08;;;;;;;;;;5089635;28;20182;-45
2021/08/03 07:49:59;;;;;;;3.08;2.78;;;;;;;;;;5088565;28;20206;-45
2021/08/03 07:52:25;;;;;;;3.53;3.22;;;;;;;;;;5095028;28;20180;-45
2021/08/03 07:54:51;;;;;;;4.32;3.25;;;;;;;;;;5098725;28;20256;-45
2021/08/03 07:57:17;;;;;;;2.55;2.35;;;;;;;;;;5094029;28;20235;-46
2021/08/03 07:59:43;;;;;;;4.38;2.50;;;;;;;;;;5083182;28;20561;-46
2021/08/03 08:02:09;;;;;;;3.67;2.55;;;;;;;;;;5074555;28;20257;-46
2021/08/03 08:04:35;;;;;;;3.10;2.63;;;;;;;;;;5097858;28;20174;-45
2021/08/03 08:07:01;;;;;;;2.50;2.30;;;;;;;;;;5081241;28;20235;-46
2021/08/03 08:09:27;;;;;;;3.00;2.45;;;;;;;;;;5105457;28;20446;-46
2021/08/03 08:11:53;;;;;;;3.60;2.30;;;;;;;;;;5094541;28;20256;-46
2021/08/03 08:14:19;;;;;;;2.53;2.33;;;;;;;;;;5094676;28;20193;-46
2021/08/03 08:16:46;;;;;;;2.85;2.47;;;;;;;;;;5093466;28;20205;-46
2021/08/03 08:19:12;;;;;;;4.97;2.03;;;;;;;;;;5093947;28;20162;-46
2021/08/03 08:21:38;;;;;;;2.58;2.10;;;;;;;;;;5105790;28;20260;-45
2021/08/03 08:24:04;;;;;;;2.10;2.00;;;;;;;;;;5103498;28;20603;-45
2021/08/03 08:26:31;;;;;;;2.47;2.10;;;;;;;;;;5087857;28;20574;-45
2021/08/03 08:28:58;;;;;;;1.95;1.80;;;;;;;;;;5078827;28;20424;-45
2021/08/03 08:31:24;;;;;;;2.25;2.00;;;;;;;;;;5093879;28;20197;-45
2021/08/03 08:33:50;;;;;;;2.55;1.77;;;;;;;;;;5094171;28;20185;-45
2021/08/03 08:36:16;;;;;;;2.05;1.85;;;;;;;;;;5090271;28;20166;-45
2021/08/03 08:38:42;;;;;;;2.10;1.80;;;;;;;;;;5091538;28;20184;-45
2021/08/03 08:41:11;;;;;;;3.08;1.75;;;;;;;;;;5084569;28;20604;-47
2021/08/03 08:43:37;;;;;;;2.63;1.98;;;;;;;;;;5076497;28;20233;-46
2021/08/03 08:46:05;;;;;;;2.97;2.03;;;;;;;;;;5092256;28;20174;-45
2021/08/03 08:48:31;;;;;;;3.53;1.90;;;;;;;;;;5077356;28;20174;-45
2021/08/03 08:50:58;;;;;;;3.10;2.25;;;;;;;;;;5094197;28;20204;-45
2021/08/03 08:53:25;;;;;;;2.05;1.88;;;;;;;;;;5090650;28;20657;-45
2021/08/03 08:55:51;;;;;;;1.75;1.65;;;;;;;;;;5090700;28;20527;-45
2021/08/03 08:58:17;;;;;;;3.28;1.70;;;;;;;;;;5077362;28;20166;-45
2021/08/03 09:00:43;;;;;;;2.40;2.20;;;;;;;;;;5098166;28;20412;-45
2021/08/03 09:03:09;;;;;;;2.35;2.10;;;;;;;;;;5101548;28;20182;-45
2021/08/03 09:05:39;;;;;;;1.88;1.73;;;;;;;;;;5118790;28;20169;-46
2021/08/03 09:08:06;;;;;;;2.30;1.80;;;;;;;;;;5095278;28;20516;-46
2021/08/03 09:10:38;;;;;;;2.70;1.95;;;;;;;;;;5087420;28;20668;-46
2021/08/03 09:13:13;;;;;;;5.00;1.80;;;;;;;;;;5077524;28;20171;-46
2021/08/03 09:15:40;;;;;;;2.85;2.10;;;;;;;;;;5097032;28;20177;-46
2021/08/03 09:18:16;;;;;;;4.47;2.70;;;;;;;;;;5096940;28;20169;-45
2021/08/03 09:20:43;;;;;;;3.17;2.45;;;;;;;;;;5118304;28;20196;-45
2021/08/03 09:23:09;;;;;;;5.03;2.83;;;;;;;;;;5105627;28;20178;-45
2021/08/03 09:25:36;;;;;;;2.50;2.30;;;;;;;;;;5089000;28;20196;-45
2021/08/03 09:28:07;;;;;;;5.45;2.38;;;;;;;;;;5093341;28;20324;-45
2021/08/03 09:30:34;;;;;;;5.18;1.92;;;;;;;;;;5082782;28;20198;-46
2021/08/03 09:33:01;;;;;;;3.00;1.95;;;;;;;;;;5098858;28;20184;-46
2021/08/03 09:35:28;;;;;;;1.65;1.50;;;;;;;;;;5099929;28;20169;-46
2021/08/03 09:37:55;;;;;;;4.18;1.80;;;;;;;;;;5099427;28;20170;-46
2021/08/03 09:40:25;;;;;;;2.97;2.22;;;;;;;;;;5099650;28;20181;-46
2021/08/03 09:43:07;;;;;;;3.47;1.83;;;;;;;;;;5099822;28;20169;-46
2021/08/03 09:45:53;;;;;;;2.10;1.83;;;;;;;;;;5099624;28;20484;-46
2021/08/03 09:48:21;;;;;;;3.30;1.80;;;;;;;;;;5099783;28;20441;-46
2021/08/03 09:50:51;;;;;;;4.03;2.35;;;;;;;;;;5099742;28;20186;-46
2021/08/03 09:53:36;;;;;;;2.33;1.80;;;;;;;;;;5099739;28;20162;-46
2021/08/03 09:56:02;;;;;;;4.97;2.25;;;;;;;;;;5099792;28;20189;-46
2021/08/03 09:58:28;;;;;;;2.45;1.70;;;;;;;;;;5099410;28;20170;-46
2021/08/03 10:00:54;;;;;;;4.45;1.70;;;;;;;;;;5099596;28;20246;-46
2021/08/03 10:03:20;;;;;;;1.83;1.60;;;;;;;;;;5099697;28;20268;-46
2021/08/03 10:05:47;;;;;;;3.15;1.95;;;;;;;;;;5098839;28;20174;-45
2021/08/03 10:08:13;;;;;;;1.75;1.60;;;;;;;;;;5099245;28;20170;-45
2021/08/03 10:10:39;;;;;;;7.65;1.70;;;;;;;;;;5099449;28;20189;-45
2021/08/03 10:13:05;;;;;;;2.28;1.55;;;;;;;;;;5099365;28;20165;-46
2021/08/03 10:18:37;;;;;;;4.97;1.85;;;;;;;;;;5099342;28;20157;-45
2021/08/03 10:21:04;;;;;;;2.38;1.90;;;;;;;;;;5099137;28;20181;-45
2021/08/03 10:23:31;;;;;;;2.53;1.55;;;;;;;;;;5099120;28;20170;-45
2021/08/03 10:25:58;;;;;;;1.63;1.52;;;;;;;;;;5099013;28;20250;-46
2021/08/03 10:28:29;;;;;;;3.40;1.80;;;;;;;;;;5098863;28;20174;-46
2021/08/03 10:30:56;;;;;;;2.45;1.80;;;;;;;;;;5098060;28;20181;-46
2021/08/03 10:33:40;;;;;;;2.90;1.70;;;;;;;;;;5090541;28;20839;-46
2021/08/03 10:36:06;;;;;;;2.33;1.70;;;;;;;;;;5094796;28;20180;-45
2021/08/03 10:38:32;;;;;;;2.70;1.60;;;;;;;;;;5102162;28;20537;-45
2021/08/03 10:41:00;;;;;;;4.40;2.05;;;;;;;;;;5102466;28;20188;-46
2021/08/03 10:43:35;;;;;;;1.80;1.67;;;;;;;;;;5094886;28;20447;-46
2021/08/03 10:46:07;;;;;;;1.70;1.60;;;;;;;;;;5087113;28;20185;-46
2021/08/03 10:48:40;;;;;;;2.15;1.80;;;;;;;;;;5092004;28;20182;-46
2021/08/03 10:51:15;;;;;;;2.78;1.70;;;;;;;;;;5093729;28;20197;-46
2021/08/03 10:54:00;;;;;;;2.80;1.70;;;;;;;;;;5085998;28;20198;-45
2021/08/03 10:56:26;;;;;;;1.70;1.60;;;;;;;;;;5092185;28;20505;-46
2021/08/03 10:59:12;;;;;;;1.55;1.45;;;;;;;;;;5094619;28;20447;-46
2021/08/03 11:01:45;;;;;;;1.67;1.58;;;;;;;;;;5090667;28;20525;-46
2021/08/03 11:04:31;;;;;;;2.33;1.38;;;;;;;;;;5094485;28;20521;-46
2021/08/03 11:07:17;;;;;;;1.65;1.40;;;;;;;;;;5088579;28;20217;-46
2021/08/03 11:09:43;;;;;;;1.58;1.48;;;;;;;;;;5098836;28;20189;-46
2021/08/03 11:12:27;;;;;;;1.70;1.60;;;;;;;;;;5096093;28;20162;-45
2021/08/03 11:14:53;;;;;;;1.83;1.73;;;;;;;;;;5082035;28;20186;-45
2021/08/03 11:17:39;;;;;;;2.65;1.67;;;;;;;;;;5073983;28;20185;-45
2021/08/03 11:20:05;;;;;;;2.38;1.30;;;;;;;;;;5081286;28;20181;-46
2021/08/03 11:22:51;;;;;;;1.70;1.60;;;;;;;;;;5088799;28;20190;-46
2021/08/03 11:25:20;;;;;;;1.63;1.52;;;;;;;;;;5098452;28;20279;-46
2021/08/03 11:27:46;;;;;;;1.60;1.50;;;;;;;;;;5074738;28;20163;-46
2021/08/03 11:30:12;;;;;;;3.33;1.60;;;;;;;;;;5090488;28;20498;-46
2021/08/03 11:32:38;;;;;;;2.13;1.50;;;;;;;;;;5088112;28;20213;-46
2021/08/03 11:35:04;;;;;;;2.15;1.67;;;;;;;;;;5095728;28;20185;-46
2021/08/03 11:37:38;;;;;;;1.70;1.60;;;;;;;;;;5095939;28;20200;-46
2021/08/03 11:40:05;;;;;;;2.10;1.83;;;;;;;;;;5104608;28;20181;-46
2021/08/03 11:42:41;;;;;;;1.55;1.40;;;;;;;;;;5085655;28;20186;-46
2021/08/03 11:45:09;;;;;;;1.80;1.70;;;;;;;;;;5080162;28;20201;-46
2021/08/03 11:47:42;;;;;;;1.67;1.58;;;;;;;;;;5083997;28;20189;-45
2021/08/03 11:50:08;;;;;;;3.78;1.63;;;;;;;;;;5095076;28;20190;-45
2021/08/03 11:52:34;;;;;;;1.50;1.40;;;;;;;;;;5096037;28;20204;-46
2021/08/03 11:55:01;;;;;;;1.60;1.50;;;;;;;;;;5106291;28;20244;-46
2021/08/03 11:57:29;;;;;;;2.50;1.70;;;;;;;;;;5089604;28;20177;-46
2021/08/03 12:00:00;;;;;;;1.58;1.48;;;;;;;;;;5087810;28;20216;-46
2021/08/03 12:02:26;;;;;;;1.65;1.50;;;;;;;;;;5094919;28;20166;-46
2021/08/03 12:05:10;;;;;;;2.00;1.80;;;;;;;;;;5102225;28;20181;-46
2021/08/03 12:07:37;;;;;;;8.43;2.95;;;;;;;;;;5082008;28;20201;-46
2021/08/03 12:10:04;;;;;;;12.32;3.17;;;;;;;;;;5089061;28;20237;-46
2021/08/03 12:12:30;;;;;;;12.73;3.67;;;;;;;;;;5073126;28;20542;-46
2021/08/03 12:15:06;;;;;;;13.98;4.15;;;;;;;;;;5085765;28;20563;-46
2021/08/03 12:17:32;;;;;;;12.63;3.13;;;;;;;;;;5074152;28;20211;-46
2021/08/03 12:20:03;;;;;;;7.93;2.90;;;;;;;;;;5104248;28;20306;-46
2021/08/03 12:22:31;;;;;;;10.63;3.85;;;;;;;;;;5092176;28;20601;-46
2021/08/03 12:25:01;;;;;;;9.38;2.72;;;;;;;;;;5079649;28;20556;-46
2021/08/03 12:27:27;;;;;;;6.50;2.83;;;;;;;;;;5073624;28;20561;-46
2021/08/03 12:29:53;;;;;;;5.35;2.90;;;;;;;;;;5086582;28;20182;-45
2021/08/03 12:32:38;;;;;;;10.20;3.13;;;;;;;;;;5092437;28;20219;-45
2021/08/03 12:35:11;;;;;;;10.27;3.13;;;;;;;;;;5083047;28;20186;-45
2021/08/03 12:37:37;;;;;;;13.13;3.95;;;;;;;;;;5093698;28;20204;-45
2021/08/03 12:40:03;;;;;;;4.50;2.47;;;;;;;;;;5104586;28;20181;-46
2021/08/03 12:45:10;;;;;;;2.95;2.40;;;;;;;;;;5080222;28;20198;-46
2021/08/03 12:47:36;;;;;;;3.45;1.92;;;;;;;;;;5073569;28;20534;-46
2021/08/03 12:50:04;;;;;;;4.95;2.20;;;;;;;;;;5097636;28;20207;-45
2021/08/03 12:52:30;;;;;;;4.32;1.92;;;;;;;;;;5113341;28;20177;-45
2021/08/03 12:55:01;;;;;;;5.10;2.08;;;;;;;;;;5098049;28;20205;-45
2021/08/03 12:57:46;;;;;;;7.43;1.92;;;;;;;;;;5073560;28;20201;-45
2021/08/03 13:00:28;;;;;;;2.20;1.80;;;;;;;;;;5089375;28;20182;-45
2021/08/03 13:02:54;;;;;;;2.50;1.88;;;;;;;;;;5103783;28;20189;-45
2021/08/03 13:05:20;;;;;;;1.70;1.60;;;;;;;;;;5091625;28;20568;-45
2021/08/03 13:07:46;;;;;;;3.60;1.70;;;;;;;;;;5106702;28;20178;-45
2021/08/03 13:10:12;;;;;;;1.98;1.70;;;;;;;;;;5105463;28;20626;-45
2021/08/03 13:12:38;;;;;;;2.22;1.50;;;;;;;;;;5094056;28;20170;-45
2021/08/03 13:15:04;;;;;;;2.08;1.40;;;;;;;;;;5080160;28;20186;-45
2021/08/03 13:17:31;;;;;;;2.90;1.60;;;;;;;;;;5085795;28;20190;-46
2021/08/03 13:19:57;;;;;;;3.70;1.60;;;;;;;;;;5104478;28;20475;-46
2021/08/03 13:22:22;;;;;;;2.45;1.50;;;;;;;;;;5098338;28;20226;-46
2021/08/03 13:24:48;;;;;;;1.52;1.30;;;;;;;;;;5094546;28;20203;-46
2021/08/03 13:27:14;;;;;;;3.72;2.10;;;;;;;;;;5092561;28;20214;-45
2021/08/03 13:29:40;;;;;;;2.20;2.10;;;;;;;;;;5082681;28;20181;-45
2021/08/03 13:32:06;;;;;;;2.25;1.73;;;;;;;;;;5076950;28;20246;-46
2021/08/03 13:34:32;;;;;;;1.90;1.80;;;;;;;;;;5098553;28;20197;-46
2021/08/03 13:36:58;;;;;;;1.60;1.50;;;;;;;;;;5092880;28;20552;-46
2021/08/03 13:39:25;;;;;;;2.70;1.75;;;;;;;;;;5106574;28;20280;-46
2021/08/03 13:41:51;;;;;;;1.75;1.65;;;;;;;;;;5097428;28;20177;-45
2021/08/03 13:44:17;;;;;;;1.52;1.42;;;;;;;;;;5090046;28;20179;-45
2021/08/03 13:46:43;;;;;;;1.75;1.40;;;;;;;;;;5090244;28;20267;-45
2021/08/03 13:49:09;;;;;;;1.20;1.20;;;;;;;;;;5096994;28;20591;-46
2021/08/03 13:51:35;;;;;;;1.85;1.25;;;;;;;;;;5097571;28;20193;-46
2021/08/03 13:54:01;;;;;;;1.88;1.63;;;;;;;;;;5107113;28;20177;-46
2021/08/03 13:56:28;;;;;;;1.23;1.13;;;;;;;;;;5088629;28;20199;-46
2021/08/03 13:58:54;;;;;;;1.40;1.20;;;;;;;;;;5080736;28;20169;-46
2021/08/03 14:01:20;;;;;;;1.25;1.10;;;;;;;;;;5097164;28;20168;-46
2021/08/03 14:03:46;;;;;;;1.20;1.10;;;;;;;;;;5102696;28;20201;-46
2021/08/03 14:06:12;;;;;;;1.38;1.25;;;;;;;;;;5097030;28;20170;-46
2021/08/03 14:08:38;;;;;;;1.40;1.30;;;;;;;;;;5102953;28;20177;-46
2021/08/03 14:11:04;;;;;;;1.67;1.27;;;;;;;;;;5088441;28;20493;-46
2021/08/03 14:13:30;;;;;;;1.50;1.40;;;;;;;;;;5093809;28;20166;-46
2021/08/03 14:15:56;;;;;;;3.35;1.52;;;;;;;;;;5076632;28;20261;-46
2021/08/03 14:18:23;;;;;;;2.33;1.48;;;;;;;;;;5076102;28;20204;-46
2021/08/03 14:20:50;;;;;;;3.47;1.58;;;;;;;;;;5084345;28;20189;-46
2021/08/03 14:23:16;;;;;;;1.50;1.40;;;;;;;;;;5107835;28;20204;-46
2021/08/03 14:25:42;;;;;;;1.67;1.58;;;;;;;;;;5096788;28;20273;-45
2021/08/03 14:28:08;;;;;;;2.58;1.40;;;;;;;;;;5096306;28;20257;-46
2021/08/03 14:30:35;;;;;;;1.65;1.52;;;;;;;;;;5083919;28;20198;-46
2021/08/03 14:33:02;;;;;;;1.50;1.40;;;;;;;;;;5088623;28;20178;-46
2021/08/03 14:35:28;;;;;;;1.98;1.50;;;;;;;;;;5116983;28;20252;-46
2021/08/03 14:37:54;;;;;;;1.50;1.40;;;;;;;;;;5114378;28;20176;-46
2021/08/03 14:40:20;;;;;;;1.55;1.45;;;;;;;;;;5089185;28;20274;-45
2021/08/03 14:42:46;;;;;;;1.60;1.50;;;;;;;;;;5096261;28;20635;-45
2021/08/03 14:45:12;;;;;;;1.42;1.33;;;;;;;;;;5096187;28;20169;-45
2021/08/03 14:47:38;;;;;;;1.50;1.40;;;;;;;;;;5095802;28;20556;-45
2021/08/03 14:50:05;;;;;;;1.77;1.50;;;;;;;;;;5095485;28;20205;-45
2021/08/03 14:52:31;;;;;;;2.67;1.40;;;;;;;;;;5112496;28;20256;-45
2021/08/03 14:54:57;;;;;;;1.30;1.20;;;;;;;;;;5099648;28;20181;-46
2021/08/03 14:57:23;;;;;;;1.58;1.40;;;;;;;;;;5093463;28;20457;-45
2021/08/03 14:59:49;;;;;;;2.58;1.48;;;;;;;;;;5083937;28;20174;-45
2021/08/03 15:02:15;;;;;;;2.00;1.58;;;;;;;;;;5075852;28;20173;-45
2021/08/03 15:04:41;;;;;;;2.42;1.67;;;;;;;;;;5098531;28;20178;-45
2021/08/03 15:07:07;;;;;;;3.10;1.70;;;;;;;;;;5092801;28;20197;-45